KISO/ISO METAR and TAF weather

Enter ICAO airport designator
Station Type Date Time Source
KISO METAR 2019/05/21 20:56 UTC NOAA

KISO 212056Z 33008KT 10SM CLR 32/10 A2993


Station Type Date Time Source
KISO Decoded METAR 2019/05/21 20:56 UTC NOAA

Kinston, Kinston Regional Jetport at Stallings Field, NC, United States (KISO) 35-20N 077-37W
May 21, 2019 - 04:56 PM EDT / 2019.05.21 2056 UTC
Wind: from the NNW (330 degrees) at 9 MPH (8 KT):0
Visibility: 10 mile(s):0
Sky conditions: clear
Temperature: 89 F (32 C)
Dew Point: 50 F (10 C)
Relative Humidity: 25%
Pressure (altimeter): 29.93 in. Hg (1013 hPa)
ob: KISO 212056Z 33008KT 10SM CLR 32/10 A2993
cycle: 21

Station Type Date Time Source
KISO TAF 2019/05/21 18:54 UTC NOAA

TAF KISO 211752Z 2118/2218 02007KT P6SM SKC
FM220000 VRB03KT P6SM FEW250
FM221400 06006KT P6SM SKC
AMD LTD TO CLD VIS AND WIND

Example: see airport list